createdAt,value
2022-08-21T00:01:28.558Z,51.40
2022-08-21T00:04:07.747Z,51.59
2022-08-21T00:06:40.497Z,51.21
2022-08-21T00:09:13.374Z,51.17
2022-08-21T00:11:46.229Z,51.54
2022-08-21T00:14:18.829Z,51.23
2022-08-21T00:16:52.056Z,51.09
2022-08-21T00:19:27.030Z,51.51
2022-08-21T00:22:00.265Z,51.63
2022-08-21T00:24:33.230Z,51.99
2022-08-21T00:27:06.015Z,51.51
2022-08-21T00:29:39.114Z,51.76
2022-08-21T00:32:11.802Z,51.67
2022-08-21T00:34:45.986Z,52.17
2022-08-21T00:37:18.818Z,52.71
2022-08-21T00:39:51.826Z,51.96
2022-08-21T00:42:24.424Z,52.04
2022-08-21T00:44:57.178Z,52.24
2022-08-21T00:47:30.114Z,52.06
2022-08-21T00:50:05.563Z,51.55
2022-08-21T00:52:39.696Z,51.48
2022-08-21T00:55:14.031Z,51.68
2022-08-21T00:57:51.353Z,51.62
2022-08-21T01:00:28.922Z,51.63
2022-08-21T01:03:10.692Z,52.04
2022-08-21T01:05:46.639Z,51.89
2022-08-21T01:08:20.332Z,51.42
2022-08-21T01:10:55.015Z,51.84
2022-08-21T01:13:36.249Z,52.17
2022-08-21T01:16:11.588Z,51.41
2022-08-21T01:18:45.549Z,51.62
2022-08-21T01:21:22.178Z,51.92
2022-08-21T01:24:00.947Z,51.89
2022-08-21T01:26:36.557Z,51.59
2022-08-21T01:29:28.662Z,51.52
2022-08-21T01:32:08.313Z,51.56
2022-08-21T01:34:44.781Z,51.72
2022-08-21T01:37:20.652Z,51.87
2022-08-21T01:39:54.488Z,51.97
2022-08-21T01:42:27.535Z,51.82
2022-08-21T01:45:00.506Z,51.85
2022-08-21T01:47:33.706Z,52.15
2022-08-21T01:50:09.737Z,52.10
2022-08-21T01:52:44.086Z,52.03
2022-08-21T01:55:20.258Z,51.83
2022-08-21T01:57:53.369Z,51.88
2022-08-21T02:00:26.347Z,51.89
2022-08-21T02:02:59.137Z,51.74
2022-08-21T02:05:32.166Z,52.04
2022-08-21T02:08:08.241Z,52.45
2022-08-21T02:10:42.019Z,52.11
2022-08-21T02:13:21.976Z,52.35
2022-08-21T02:15:54.735Z,51.86
2022-08-21T02:18:27.623Z,52.28
2022-08-21T02:21:00.489Z,52.37
2022-08-21T02:23:35.354Z,52.33
2022-08-21T02:26:10.634Z,52.25
2022-08-21T02:28:43.638Z,52.48
2022-08-21T02:31:16.433Z,52.31
2022-08-21T02:33:51.687Z,52.35
2022-08-21T02:36:30.084Z,52.03
2022-08-21T02:39:05.653Z,51.97
2022-08-21T02:41:38.565Z,52.08
2022-08-21T02:44:11.823Z,52.15
2022-08-21T02:46:44.585Z,52.45
2022-08-21T02:49:17.397Z,52.26
2022-08-21T02:51:50.170Z,52.41
2022-08-21T02:54:24.466Z,52.40
2022-08-21T02:56:57.283Z,52.60
2022-08-21T02:59:30.121Z,53.19
2022-08-21T03:02:03.491Z,53.12
2022-08-21T03:04:36.471Z,53.24
2022-08-21T03:07:11.101Z,53.31
2022-08-21T03:09:55.220Z,52.97
2022-08-21T03:12:30.007Z,53.23
2022-08-21T03:15:03.376Z,52.92
2022-08-21T03:17:36.339Z,53.04
2022-08-21T03:20:11.087Z,53.39
2022-08-21T03:22:46.885Z,53.24
2022-08-21T03:25:39.722Z,52.90
2022-08-21T03:28:16.547Z,52.94
2022-08-21T03:30:51.739Z,53.25
2022-08-21T03:33:25.027Z,53.00
2022-08-21T03:36:05.741Z,53.72
2022-08-21T03:38:39.827Z,53.42
2022-08-21T03:41:14.001Z,53.71
2022-08-21T03:43:46.701Z,53.33
2022-08-21T03:46:20.185Z,53.81
2022-08-21T03:48:53.233Z,53.34
2022-08-21T03:51:25.814Z,53.44
2022-08-21T03:53:58.939Z,53.54
2022-08-21T03:56:33.147Z,53.42
2022-08-21T03:59:05.958Z,53.45
2022-08-21T04:01:39.928Z,53.70
2022-08-21T04:04:12.664Z,53.83
2022-08-21T04:06:46.995Z,53.30
2022-08-21T04:09:20.362Z,53.60
2022-08-21T04:11:54.947Z,53.43
2022-08-21T04:14:27.761Z,53.63
2022-08-21T04:17:00.739Z,53.21
2022-08-21T04:19:33.449Z,53.98
2022-08-21T04:22:06.379Z,53.43
2022-08-21T04:24:39.070Z,53.82
2022-08-21T04:27:13.417Z,53.51
2022-08-21T04:29:46.076Z,54.02
2022-08-21T04:32:23.295Z,54.04
2022-08-21T04:35:01.010Z,53.75
2022-08-21T04:37:34.064Z,53.64
2022-08-21T04:40:18.352Z,53.83
2022-08-21T04:42:55.159Z,53.75
2022-08-21T04:45:30.963Z,54.34
2022-08-21T04:48:10.717Z,54.19
2022-08-21T04:50:49.625Z,54.09
2022-08-21T04:53:25.678Z,53.81
2022-08-21T04:56:02.799Z,53.74
2022-08-21T04:58:38.535Z,54.17
2022-08-21T05:01:15.477Z,53.90
2022-08-21T05:03:52.523Z,54.40
2022-08-21T05:06:25.902Z,54.15
2022-08-21T05:09:01.964Z,54.29
2022-08-21T05:11:36.020Z,54.07
2022-08-21T05:14:10.460Z,54.56
2022-08-21T05:16:44.809Z,54.40
2022-08-21T05:19:17.579Z,54.64
2022-08-21T05:21:50.465Z,54.67
2022-08-21T05:24:23.107Z,54.43
2022-08-21T05:26:55.887Z,54.82
2022-08-21T05:29:32.358Z,54.80
2022-08-21T05:32:10.653Z,54.70
2022-08-21T05:34:43.700Z,54.35
2022-08-21T05:37:16.305Z,55.15
2022-08-21T05:40:21.123Z,55.12
2022-08-21T05:42:41.827Z,54.73
2022-08-21T05:45:16.114Z,55.12
2022-08-21T05:48:07.828Z,54.89
2022-08-21T05:50:41.138Z,54.87
2022-08-21T05:53:15.447Z,54.99
2022-08-21T05:55:50.200Z,55.11
2022-08-21T05:58:24.172Z,54.96
2022-08-21T06:00:59.667Z,55.36
2022-08-21T06:03:35.372Z,55.15
2022-08-21T06:06:08.826Z,55.21
2022-08-21T06:08:41.570Z,54.87
2022-08-21T06:11:14.623Z,55.68
2022-08-21T06:13:47.426Z,55.37
2022-08-21T06:16:23.157Z,55.27
2022-08-21T06:18:59.475Z,54.81
2022-08-21T06:21:34.882Z,55.12
2022-08-21T06:24:07.972Z,55.47
2022-08-21T06:26:40.569Z,54.95
2022-08-21T06:29:17.417Z,55.18
2022-08-21T06:31:52.920Z,55.14
2022-08-21T06:34:25.683Z,55.51
2022-08-21T06:36:58.406Z,55.40
2022-08-21T06:39:32.457Z,55.18
2022-08-21T06:42:10.586Z,55.91
2022-08-21T06:44:45.069Z,55.26
2022-08-21T06:47:19.420Z,55.01
2022-08-21T06:49:52.195Z,54.89
2022-08-21T06:52:27.434Z,55.14
2022-08-21T06:55:00.227Z,55.22
2022-08-21T06:57:32.996Z,55.17
2022-08-21T07:00:07.163Z,55.20
2022-08-21T07:02:41.617Z,55.36
2022-08-21T07:05:18.593Z,54.81
2022-08-21T07:07:51.700Z,54.87
2022-08-21T07:10:24.687Z,54.84
2022-08-21T07:13:00.289Z,54.79
2022-08-21T07:15:33.920Z,54.89
2022-08-21T07:18:08.755Z,55.00
2022-08-21T07:20:42.492Z,54.52
2022-08-21T07:23:24.062Z,54.90
2022-08-21T07:25:57.014Z,55.10
2022-08-21T07:28:30.323Z,55.33
2022-08-21T07:31:04.014Z,54.91
2022-08-21T07:33:38.418Z,56.03
2022-08-21T07:36:11.892Z,54.63
2022-08-21T07:38:44.915Z,54.83
2022-08-21T07:41:19.395Z,55.31
2022-08-21T07:43:53.035Z,57.26
2022-08-21T07:46:26.652Z,56.95
2022-08-21T07:49:00.807Z,56.17
2022-08-21T07:51:35.625Z,56.08
2022-08-21T07:54:10.475Z,55.32
2022-08-21T07:56:50.038Z,58.34
2022-08-21T07:59:22.977Z,58.87
2022-08-21T08:01:55.564Z,57.81
2022-08-21T08:04:29.776Z,57.17
2022-08-21T08:07:02.649Z,56.67
2022-08-21T08:09:35.433Z,56.00
2022-08-21T08:12:08.763Z,57.56
2022-08-21T08:14:42.227Z,57.16
2022-08-21T08:17:15.179Z,56.26
2022-08-21T08:19:49.522Z,56.73
2022-08-21T08:22:25.126Z,56.46
2022-08-21T08:24:58.251Z,56.56
2022-08-21T08:27:31.072Z,54.81
2022-08-21T08:30:03.922Z,55.20
2022-08-21T08:32:38.918Z,53.82
2022-08-21T08:35:14.442Z,54.75
2022-08-21T08:37:52.609Z,55.34
2022-08-21T08:40:34.169Z,54.35
2022-08-21T08:43:07.231Z,53.83
2022-08-21T08:45:43.578Z,52.93
2022-08-21T08:48:28.266Z,53.62
2022-08-21T08:51:04.976Z,51.53
2022-08-21T08:53:46.414Z,51.21
2022-08-21T08:56:27.979Z,52.58
2022-08-21T08:59:05.792Z,52.06
2022-08-21T09:01:39.326Z,52.11
2022-08-21T09:04:14.470Z,52.41
2022-08-21T09:07:11.578Z,52.28
2022-08-21T09:10:08.426Z,52.08
2022-08-21T09:12:52.638Z,51.73
2022-08-21T09:15:32.504Z,51.74
2022-08-21T09:18:29.321Z,52.73
2022-08-21T09:21:20.315Z,52.43
2022-08-21T09:24:02.918Z,52.79
2022-08-21T09:26:47.154Z,52.70
2022-08-21T09:29:24.431Z,52.51
2022-08-21T09:31:57.457Z,52.66
2022-08-21T09:34:32.540Z,52.34
2022-08-21T09:37:05.885Z,52.41
2022-08-21T09:39:46.878Z,52.05
2022-08-21T09:42:27.017Z,51.87
2022-08-21T09:45:11.770Z,51.92
2022-08-21T09:47:46.501Z,51.93
2022-08-21T09:50:22.754Z,51.68
2022-08-21T09:52:59.597Z,51.34
2022-08-21T09:55:57.601Z,51.38
2022-08-21T09:58:35.011Z,51.81
2022-08-21T10:01:09.316Z,51.17
2022-08-21T10:03:42.181Z,51.35
2022-08-21T10:06:26.705Z,51.45
2022-08-21T10:09:07.965Z,51.45
2022-08-21T10:11:49.485Z,51.42
2022-08-21T10:14:36.437Z,50.30
2022-08-21T10:17:22.733Z,50.12
2022-08-21T10:20:04.760Z,51.06
2022-08-21T10:22:45.816Z,50.29
2022-08-21T10:25:22.921Z,48.98
2022-08-21T10:28:12.883Z,49.05
2022-08-21T10:30:53.936Z,48.39
2022-08-21T10:33:40.857Z,50.05
2022-08-21T10:36:21.234Z,48.96
2022-08-21T10:39:23.767Z,47.61
2022-08-21T10:42:16.049Z,48.00
2022-08-21T10:45:00.012Z,47.65
2022-08-21T10:47:37.050Z,47.35
2022-08-21T10:50:20.430Z,48.06
2022-08-21T10:53:07.090Z,47.22
2022-08-21T10:55:45.680Z,46.28
2022-08-21T10:58:25.403Z,46.47
2022-08-21T11:01:06.034Z,46.07
2022-08-21T11:03:45.387Z,46.35
2022-08-21T11:06:23.728Z,44.17
2022-08-21T11:09:00.709Z,45.43
2022-08-21T11:11:38.622Z,44.24
2022-08-21T11:14:20.534Z,45.33
2022-08-21T11:17:02.794Z,43.55
2022-08-21T11:19:40.656Z,42.91
2022-08-21T11:22:18.544Z,44.37
2022-08-21T11:24:56.974Z,43.54
2022-08-21T11:27:40.685Z,42.45
2022-08-21T11:30:14.310Z,42.94
2022-08-21T11:33:06.834Z,42.97
2022-08-21T11:35:46.737Z,42.26
2022-08-21T11:38:29.317Z,41.74
2022-08-21T11:41:29.212Z,41.99
2022-08-21T11:44:11.844Z,41.86
2022-08-21T11:46:51.906Z,42.76
2022-08-21T11:49:44.934Z,41.07
2022-08-21T11:52:22.413Z,42.18
2022-08-21T11:55:00.387Z,41.18
2022-08-21T11:57:37.921Z,41.07
2022-08-21T12:00:18.756Z,41.34
2022-08-21T12:02:55.453Z,41.35
2022-08-21T12:05:36.015Z,40.77
2022-08-21T12:08:13.725Z,41.70
2022-08-21T12:11:00.786Z,40.72
2022-08-21T12:13:40.309Z,41.79
2022-08-21T12:16:17.629Z,40.36
2022-08-21T12:18:50.293Z,39.20
2022-08-21T12:21:26.969Z,39.08
2022-08-21T12:24:07.505Z,39.75
2022-08-21T12:26:51.471Z,40.36
2022-08-21T12:29:27.361Z,39.72
2022-08-21T12:32:02.576Z,39.60
2022-08-21T12:34:39.143Z,38.75
2022-08-21T12:37:23.628Z,39.55
2022-08-21T12:40:00.849Z,38.80
2022-08-21T12:42:39.480Z,39.23
2022-08-21T12:45:19.925Z,39.28
2022-08-21T12:47:59.016Z,38.16
2022-08-21T12:50:38.698Z,38.47
2022-08-21T12:53:23.594Z,36.56
2022-08-21T12:56:00.847Z,38.20
2022-08-21T12:58:33.947Z,37.73
2022-08-21T13:01:09.250Z,37.66
2022-08-21T13:03:43.188Z,38.67
2022-08-21T13:06:18.371Z,38.00
2022-08-21T13:08:58.039Z,37.79
2022-08-21T13:11:33.819Z,36.85
2022-08-21T13:14:16.406Z,37.72
2022-08-21T13:16:54.673Z,36.44
2022-08-21T13:19:28.798Z,37.27
2022-08-21T13:22:02.764Z,35.96
2022-08-21T13:24:56.769Z,37.32
2022-08-21T13:27:32.001Z,35.89
2022-08-21T13:30:13.281Z,36.38
2022-08-21T13:32:50.286Z,38.04
2022-08-21T13:35:27.755Z,36.52
2022-08-21T13:38:01.450Z,38.20
2022-08-21T13:40:47.455Z,39.69
2022-08-21T13:43:24.163Z,39.95
2022-08-21T13:45:58.072Z,36.09
2022-08-21T13:48:35.859Z,39.40
2022-08-21T13:51:09.040Z,38.39
2022-08-21T13:53:52.290Z,39.34
2022-08-21T13:56:28.945Z,39.78
2022-08-21T13:59:03.717Z,38.42
2022-08-21T14:01:40.940Z,39.56
2022-08-21T14:04:21.398Z,38.94
2022-08-21T14:06:55.174Z,37.56
2022-08-21T14:09:31.981Z,37.65
2022-08-21T14:12:23.532Z,39.46
2022-08-21T14:14:58.480Z,39.00
2022-08-21T14:17:36.278Z,38.77
2022-08-21T14:20:13.581Z,38.36
2022-08-21T14:22:48.857Z,38.38
2022-08-21T14:25:31.450Z,38.69
2022-08-21T14:28:19.633Z,38.38
2022-08-21T14:30:53.960Z,39.10
2022-08-21T14:33:29.650Z,39.19
2022-08-21T14:36:02.947Z,39.61
2022-08-21T14:38:37.923Z,39.17
2022-08-21T14:41:17.857Z,38.99
2022-08-21T14:44:06.103Z,38.67
2022-08-21T14:46:55.264Z,40.06
2022-08-21T14:49:31.609Z,39.76
2022-08-21T14:52:05.095Z,40.76
2022-08-21T14:54:37.799Z,40.18
2022-08-21T14:57:12.969Z,41.00
2022-08-21T14:59:47.337Z,40.87
2022-08-21T15:02:20.118Z,40.48
2022-08-21T15:04:52.907Z,40.99
2022-08-21T15:07:25.888Z,41.85
2022-08-21T15:09:58.815Z,41.05
2022-08-21T15:12:31.601Z,40.98
2022-08-21T15:15:07.703Z,41.24
2022-08-21T15:17:42.988Z,41.42
2022-08-21T15:20:17.811Z,41.05
2022-08-21T15:22:50.526Z,40.14
2022-08-21T15:25:23.323Z,40.52
2022-08-21T15:27:56.622Z,41.25
2022-08-21T15:30:32.174Z,40.20
2022-08-21T15:33:05.144Z,41.41
2022-08-21T15:35:38.602Z,41.66
2022-08-21T15:38:14.172Z,41.46
2022-08-21T15:40:51.663Z,41.36
2022-08-21T15:43:29.699Z,41.28
2022-08-21T15:46:06.727Z,41.05
2022-08-21T15:48:39.701Z,41.12
2022-08-21T15:51:13.102Z,41.31
2022-08-21T15:53:48.395Z,41.53
2022-08-21T15:56:25.102Z,41.38
2022-08-21T15:59:02.747Z,41.25
2022-08-21T16:01:44.606Z,41.25
2022-08-21T16:04:23.083Z,41.44
2022-08-21T16:07:03.194Z,41.12
2022-08-21T16:09:38.642Z,41.09
2022-08-21T16:12:15.647Z,41.15
2022-08-21T16:14:48.530Z,40.46
2022-08-21T16:17:31.491Z,41.25
2022-08-21T16:20:07.728Z,40.50
2022-08-21T16:22:44.762Z,39.41
2022-08-21T16:25:18.219Z,40.06
2022-08-21T16:27:58.931Z,39.87
2022-08-21T16:30:32.652Z,39.89
2022-08-21T16:33:08.476Z,39.92
2022-08-21T16:35:41.489Z,39.98
2022-08-21T16:38:14.822Z,40.16
2022-08-21T16:40:47.675Z,40.06
2022-08-21T16:43:21.604Z,40.19
2022-08-21T16:45:55.012Z,40.10
2022-08-21T16:48:30.413Z,39.88
2022-08-21T16:51:03.843Z,40.63
2022-08-21T16:53:36.525Z,40.74
2022-08-21T16:56:10.723Z,40.40
2022-08-21T16:58:47.512Z,40.30
2022-08-21T17:01:25.832Z,40.98
2022-08-21T17:04:00.983Z,40.92
2022-08-21T17:06:33.766Z,40.75
2022-08-21T17:09:06.747Z,40.38
2022-08-21T17:11:43.660Z,41.18
2022-08-21T17:14:19.888Z,41.02
2022-08-21T17:16:56.325Z,41.42
2022-08-21T17:19:30.474Z,41.37
2022-08-21T17:22:04.026Z,41.16
2022-08-21T17:24:37.666Z,41.33
2022-08-21T17:27:10.598Z,41.28
2022-08-21T17:29:43.467Z,41.62
2022-08-21T17:32:17.915Z,41.69
2022-08-21T17:34:52.116Z,41.88
2022-08-21T17:37:29.078Z,41.63
2022-08-21T17:40:02.469Z,42.03
2022-08-21T17:42:35.436Z,42.04
2022-08-21T17:45:11.349Z,42.11
2022-08-21T17:47:44.759Z,42.13
2022-08-21T17:50:22.727Z,42.15
2022-08-21T17:52:55.815Z,42.22
2022-08-21T17:55:30.025Z,42.46
2022-08-21T17:58:04.108Z,42.63
2022-08-21T18:00:37.794Z,42.62
2022-08-21T18:03:15.038Z,42.81
2022-08-21T18:05:53.847Z,42.60
2022-08-21T18:08:26.993Z,42.72
2022-08-21T18:11:00.786Z,43.03
2022-08-21T18:13:37.445Z,42.66
2022-08-21T18:16:12.593Z,42.80
2022-08-21T18:18:46.118Z,42.80
2022-08-21T18:21:20.901Z,43.17
2022-08-21T18:23:55.186Z,43.20
2022-08-21T18:26:31.683Z,43.13
2022-08-21T18:29:07.637Z,43.32
2022-08-21T18:31:43.646Z,43.09
2022-08-21T18:34:26.056Z,43.30
2022-08-21T18:37:00.250Z,43.51
2022-08-21T18:39:37.507Z,43.73
2022-08-21T18:42:13.114Z,43.84
2022-08-21T18:44:48.160Z,43.90
2022-08-21T18:47:24.218Z,44.18
2022-08-21T18:49:56.962Z,43.95
2022-08-21T18:52:31.119Z,44.84
2022-08-21T18:55:05.862Z,43.97
2022-08-21T18:57:42.378Z,44.24
2022-08-21T19:00:24.437Z,44.15
2022-08-21T19:02:58.374Z,44.76
2022-08-21T19:05:31.772Z,44.38
2022-08-21T19:08:06.348Z,45.37
2022-08-21T19:10:40.038Z,44.83
2022-08-21T19:13:18.745Z,44.48
2022-08-21T19:15:53.362Z,44.57
2022-08-21T19:18:28.659Z,45.06
2022-08-21T19:21:01.478Z,45.18
2022-08-21T19:23:35.766Z,45.20
2022-08-21T19:26:10.692Z,45.59
2022-08-21T19:28:46.197Z,45.29
2022-08-21T19:31:23.660Z,45.76
2022-08-21T19:34:02.956Z,45.45
2022-08-21T19:36:35.940Z,45.65
2022-08-21T19:39:12.678Z,45.69
2022-08-21T19:41:48.938Z,46.20
2022-08-21T19:44:26.752Z,46.27
2022-08-21T19:47:05.561Z,46.55
2022-08-21T19:49:38.921Z,46.26
2022-08-21T19:52:13.831Z,46.32
2022-08-21T19:54:48.492Z,46.16
2022-08-21T19:57:21.323Z,46.30
2022-08-21T19:59:53.969Z,46.30
2022-08-21T20:02:27.868Z,46.87
2022-08-21T20:05:01.108Z,46.84
2022-08-21T20:07:34.494Z,47.31
2022-08-21T20:10:10.548Z,46.58
2022-08-21T20:12:45.666Z,47.34
2022-08-21T20:15:22.487Z,46.93
2022-08-21T20:17:55.845Z,47.03
2022-08-21T20:20:28.777Z,47.06
2022-08-21T20:23:10.683Z,47.61
2022-08-21T20:25:46.077Z,46.73
2022-08-21T20:28:18.948Z,46.70
2022-08-21T20:30:54.521Z,47.67
2022-08-21T20:33:27.405Z,47.05
2022-08-21T20:36:00.664Z,47.42
2022-08-21T20:38:33.572Z,47.87
2022-08-21T20:41:21.007Z,47.38
2022-08-21T20:43:56.467Z,47.89
2022-08-21T20:46:33.213Z,47.67
2022-08-21T20:49:09.183Z,47.61
2022-08-21T20:51:47.023Z,47.88
2022-08-21T20:54:26.562Z,48.43
2022-08-21T20:57:13.646Z,47.98
2022-08-21T20:59:55.827Z,48.01
2022-08-21T21:02:47.037Z,48.17
2022-08-21T21:05:22.898Z,48.44
2022-08-21T21:08:01.529Z,48.16
2022-08-21T21:10:42.410Z,48.79
2022-08-21T21:13:23.993Z,48.28
2022-08-21T21:16:00.958Z,48.67
2022-08-21T21:18:41.414Z,48.23
2022-08-21T21:21:21.508Z,48.55
2022-08-21T21:24:00.909Z,48.93
2022-08-21T21:26:39.720Z,48.42
2022-08-21T21:29:23.857Z,48.50
2022-08-21T21:31:57.226Z,48.56
2022-08-21T21:34:36.965Z,48.28
2022-08-21T21:37:23.095Z,48.37
2022-08-21T21:40:05.291Z,49.07
2022-08-21T21:42:49.323Z,49.05
2022-08-21T21:45:27.707Z,48.75
2022-08-21T21:48:13.310Z,48.84
2022-08-21T21:50:53.530Z,49.06
2022-08-21T21:53:42.392Z,48.82
2022-08-21T21:56:27.578Z,48.62
2022-08-21T21:59:20.471Z,49.13
2022-08-21T22:02:06.916Z,48.74
2022-08-21T22:04:51.490Z,49.06
2022-08-21T22:07:35.357Z,49.40
2022-08-21T22:16:09.673Z,49.54
2022-08-21T22:18:54.746Z,49.39
2022-08-21T22:21:33.088Z,49.62
2022-08-21T22:24:13.696Z,49.24
2022-08-21T22:26:50.714Z,49.48
2022-08-21T22:29:24.864Z,49.43
2022-08-21T22:32:06.833Z,49.49
2022-08-21T22:34:42.320Z,49.61
2022-08-21T22:37:15.553Z,49.79
2022-08-21T22:39:55.489Z,49.91
2022-08-21T22:42:29.772Z,49.31
2022-08-21T22:45:09.415Z,49.79
2022-08-21T22:48:11.132Z,49.68
2022-08-21T22:50:57.717Z,49.79
2022-08-21T22:53:34.475Z,49.88
2022-08-21T22:56:08.736Z,49.70
2022-08-21T22:58:56.301Z,49.65
2022-08-21T23:01:40.184Z,49.96
2022-08-21T23:04:21.654Z,49.69
2022-08-21T23:06:58.186Z,50.11
2022-08-21T23:09:35.652Z,49.99
2022-08-21T23:12:33.898Z,49.63
2022-08-21T23:15:11.503Z,49.81
2022-08-21T23:17:51.971Z,50.10
2022-08-21T23:20:32.127Z,50.19
2022-08-21T23:23:17.910Z,49.74
2022-08-21T23:26:17.683Z,49.79
2022-08-21T23:29:24.756Z,49.52
2022-08-21T23:32:13.392Z,49.54
2022-08-21T23:35:00.343Z,49.82
2022-08-21T23:37:51.610Z,49.67
2022-08-21T23:40:50.593Z,49.69
2022-08-21T23:43:39.408Z,50.07
2022-08-21T23:46:37.332Z,49.60
2022-08-21T23:49:19.728Z,49.97
2022-08-21T23:52:01.031Z,49.76
2022-08-21T23:54:48.311Z,50.10
2022-08-21T23:57:33.856Z,49.94
